CYNL

SPECI CYNL 190216Z AUTO 28010G19KT BKN009 02/01 A2970 RMK AO1 SLP082
SPECI
LOCATION
CYNL
DATE - TIME
190216Z
WIND
280 TRUE @ 10 KNOTS GUSTS 19 KNOTS
VISIBILITY
RUNWAY VISUAL RANGE
NOT REPORTED
WEATHER
CLOUDINESS
BKN009
TEMP / DEWPOINT
2 ºC / 1 ºC
ALTIMETER
29.70 in. Hg
RECENT WEATHER
NOT REPORTED
WIND SHEAR
NOT REPORTED
REMARKS
RMK AO1 SLP082
SEA LEVEL PRESSURE: hPa

CYNL

SPECI CYNL 190207Z AUTO 28009G16KT SCT009 BKN014 02/01 A2970 RMK AO1 SLP080
SPECI
LOCATION
CYNL
DATE - TIME
190207Z
WIND
280 TRUE @ 9 KNOTS GUSTS 16 KNOTS
VISIBILITY
RUNWAY VISUAL RANGE
NOT REPORTED
WEATHER
CLOUDINESS
SCT009 BKN014
TEMP / DEWPOINT
2 ºC / 1 ºC
ALTIMETER
29.70 in. Hg
RECENT WEATHER
NOT REPORTED
WIND SHEAR
NOT REPORTED
REMARKS
RMK AO1 SLP080
SEA LEVEL PRESSURE: hPa

CYNL

SPECI CYNL 190205Z AUTO 29010G16KT SCT009 BKN038 02/01 A2970 RMK AO1 SLP080
SPECI
LOCATION
CYNL
DATE - TIME
190205Z
WIND
290 TRUE @ 10 KNOTS GUSTS 16 KNOTS
VISIBILITY
RUNWAY VISUAL RANGE
NOT REPORTED
WEATHER
CLOUDINESS
SCT009 BKN038
TEMP / DEWPOINT
2 ºC / 1 ºC
ALTIMETER
29.70 in. Hg
RECENT WEATHER
NOT REPORTED
WIND SHEAR
NOT REPORTED
REMARKS
RMK AO1 SLP080
SEA LEVEL PRESSURE: hPa

Your time UTC time
 
 
Weather data provided by AXYS Technologies Inc., www.axystechnologies.com
 
Station History